createdAt,value
2017-01-14T00:00:02.478Z,42.71
2017-01-14T00:00:35.314Z,42.71
2017-01-14T00:01:08.120Z,42.61
2017-01-14T00:01:40.909Z,42.81
2017-01-14T00:02:13.669Z,42.81
2017-01-14T00:02:46.449Z,42.61
2017-01-14T00:03:19.251Z,42.81
2017-01-14T00:03:52.107Z,42.9
2017-01-14T00:04:24.899Z,42.61
2017-01-14T00:04:57.734Z,42.81
2017-01-14T00:05:30.524Z,42.61
2017-01-14T00:06:03.352Z,42.71
2017-01-14T00:06:36.147Z,42.52
2017-01-14T00:07:08.973Z,42.81
2017-01-14T00:07:41.766Z,42.71
2017-01-14T00:08:14.599Z,42.61
2017-01-14T00:08:47.418Z,42.61
2017-01-14T00:09:20.246Z,42.71
2017-01-14T00:09:53.036Z,42.71
2017-01-14T00:10:25.829Z,42.33
2017-01-14T00:10:58.626Z,42.71
2017-01-14T00:11:31.402Z,42.61
2017-01-14T00:12:04.177Z,42.71
2017-01-14T00:12:36.953Z,42.81
2017-01-14T00:13:09.791Z,42.81
2017-01-14T00:13:42.580Z,42.43
2017-01-14T00:14:15.354Z,42.43
2017-01-14T00:14:48.147Z,42.61
2017-01-14T00:15:20.966Z,42.52
2017-01-14T00:15:53.768Z,42.52
2017-01-14T00:16:26.628Z,42.43
2017-01-14T00:16:59.428Z,42.43
2017-01-14T00:17:32.189Z,42.81
2017-01-14T00:18:05.004Z,42.43
2017-01-14T00:18:37.811Z,42.52
2017-01-14T00:19:10.603Z,42.81
2017-01-14T00:19:43.386Z,43
2017-01-14T00:20:16.191Z,42.9
2017-01-14T00:20:49.037Z,43
2017-01-14T00:21:21.836Z,42.61
2017-01-14T00:21:54.639Z,42.71
2017-01-14T00:22:27.429Z,42.81
2017-01-14T00:23:00.206Z,42.81
2017-01-14T00:23:32.989Z,43
2017-01-14T00:24:05.790Z,42.71
2017-01-14T00:24:38.616Z,42.61
2017-01-14T00:25:11.408Z,42.9
2017-01-14T00:25:44.193Z,42.61
2017-01-14T00:26:17.002Z,42.61
2017-01-14T00:26:50.603Z,43.1
2017-01-14T00:27:24.409Z,42.71
2017-01-14T00:27:58.881Z,42.61
2017-01-14T00:28:31.714Z,42.61
2017-01-14T00:29:04.509Z,42.71
2017-01-14T00:29:37.303Z,42.71
2017-01-14T00:30:10.073Z,42.61
2017-01-14T00:30:42.926Z,42.61
2017-01-14T00:31:15.729Z,42.71
2017-01-14T00:31:48.529Z,42.61
2017-01-14T00:32:21.331Z,42.61
2017-01-14T00:32:54.139Z,42.71
2017-01-14T00:33:26.951Z,42.71
2017-01-14T00:33:59.719Z,42.61
2017-01-14T00:34:32.515Z,42.81
2017-01-14T00:35:05.308Z,42.81
2017-01-14T00:35:38.089Z,42.81
2017-01-14T00:36:10.926Z,42.71
2017-01-14T00:36:43.702Z,42.81
2017-01-14T00:37:16.517Z,42.61
2017-01-14T00:37:49.325Z,42.71
2017-01-14T00:38:22.116Z,42.71
2017-01-14T00:38:54.901Z,42.71
2017-01-14T00:39:27.706Z,42.71
2017-01-14T00:40:00.476Z,42.71
2017-01-14T00:40:33.286Z,42.71
2017-01-14T00:41:06.151Z,42.71
2017-01-14T00:41:38.951Z,42.71
2017-01-14T00:42:11.757Z,42.52
2017-01-14T00:42:44.527Z,42.52
2017-01-14T00:43:17.329Z,42.81
2017-01-14T00:43:50.187Z,42.71
2017-01-14T00:44:22.994Z,42.71
2017-01-14T00:44:55.766Z,42.9
2017-01-14T00:45:28.542Z,42.71
2017-01-14T00:46:01.363Z,42.71
2017-01-14T00:47:53.408Z,42.9
2017-01-14T00:48:26.181Z,42.61
2017-01-14T00:48:59.003Z,42.9
2017-01-14T00:49:31.834Z,42.81
2017-01-14T00:50:04.596Z,42.81
2017-01-14T00:50:37.375Z,43
2017-01-14T00:51:10.146Z,42.9
2017-01-14T00:51:42.959Z,42.81
2017-01-14T00:52:15.754Z,43
2017-01-14T00:52:48.533Z,42.81
2017-01-14T00:53:21.338Z,42.81
2017-01-14T00:53:54.139Z,42.9
2017-01-14T00:54:26.941Z,42.81
2017-01-14T00:54:59.761Z,42.9
2017-01-14T00:55:32.547Z,42.9
2017-01-14T00:57:36.703Z,42.81
2017-01-14T00:58:09.513Z,42.9
2017-01-14T00:58:42.299Z,42.81
2017-01-14T00:59:15.134Z,42.81
2017-01-14T00:59:47.976Z,42.79
2017-01-14T01:00:20.763Z,42.98
2017-01-14T01:00:53.566Z,42.9
2017-01-14T01:01:26.387Z,42.9
2017-01-14T01:01:59.172Z,42.81
2017-01-14T01:02:31.951Z,42.71
2017-01-14T01:03:04.733Z,42.9
2017-01-14T01:03:37.501Z,42.81
2017-01-14T01:04:10.355Z,42.9
2017-01-14T01:04:43.159Z,42.9
2017-01-14T01:05:15.950Z,42.79
2017-01-14T01:05:48.728Z,42.9
2017-01-14T01:06:21.574Z,42.81
2017-01-14T01:06:54.399Z,42.81
2017-01-14T01:07:27.207Z,43.17
2017-01-14T01:08:00.049Z,42.88
2017-01-14T01:08:32.866Z,42.88
2017-01-14T01:09:05.674Z,42.9
2017-01-14T01:09:38.492Z,43.07
2017-01-14T01:10:11.268Z,43.07
2017-01-14T01:10:44.075Z,43.07
2017-01-14T01:11:16.831Z,43.07
2017-01-14T01:11:49.647Z,42.9
2017-01-14T01:12:22.427Z,43.17
2017-01-14T01:12:55.213Z,42.88
2017-01-14T01:13:28.034Z,43.1
2017-01-14T01:14:00.837Z,43.19
2017-01-14T01:14:33.651Z,42.79
2017-01-14T01:15:06.468Z,43.17
2017-01-14T01:15:39.261Z,43.17
2017-01-14T01:16:12.045Z,43.29
2017-01-14T01:16:44.875Z,43.07
2017-01-14T01:17:17.684Z,43.1
2017-01-14T01:17:50.461Z,43.27
2017-01-14T01:18:23.245Z,43.07
2017-01-14T01:20:15.290Z,43.27
2017-01-14T01:20:48.080Z,42.88
2017-01-14T01:21:20.902Z,42.88
2017-01-14T01:21:53.708Z,43.36
2017-01-14T01:22:26.491Z,43.19
2017-01-14T01:22:59.281Z,43.07
2017-01-14T01:23:32.079Z,43.07
2017-01-14T01:24:04.883Z,43.17
2017-01-14T01:24:37.688Z,43.17
2017-01-14T01:25:10.445Z,43.17
2017-01-14T01:25:43.203Z,43.07
2017-01-14T01:26:16.055Z,43.17
2017-01-14T01:26:48.877Z,43.1
2017-01-14T01:27:21.662Z,43.07
2017-01-14T01:27:54.450Z,43.19
2017-01-14T01:28:27.282Z,43.19
2017-01-14T01:29:00.123Z,43.29
2017-01-14T01:29:32.912Z,43.27
2017-01-14T01:30:05.724Z,43.27
2017-01-14T01:30:38.500Z,43.17
2017-01-14T01:31:11.314Z,43.36
2017-01-14T01:31:44.110Z,43.07
2017-01-14T01:32:16.923Z,43.1
2017-01-14T01:32:49.773Z,43.36
2017-01-14T01:33:22.590Z,43.17
2017-01-14T01:33:55.381Z,43.27
2017-01-14T01:34:28.171Z,42.88
2017-01-14T01:35:00.997Z,42.88
2017-01-14T01:35:33.778Z,43.36
2017-01-14T01:36:06.575Z,42.9
2017-01-14T01:36:39.386Z,43.27
2017-01-14T01:37:12.215Z,43.46
2017-01-14T01:37:45.023Z,43.07
2017-01-14T01:38:17.813Z,42.88
2017-01-14T01:38:50.589Z,42.98
2017-01-14T01:39:23.415Z,42.9
2017-01-14T01:39:56.212Z,43.07
2017-01-14T01:40:29.031Z,43.36
2017-01-14T01:41:01.819Z,42.88
2017-01-14T01:41:34.657Z,42.98
2017-01-14T01:42:07.439Z,42.88
2017-01-14T01:42:40.289Z,43.36
2017-01-14T01:43:13.086Z,43.36
2017-01-14T01:43:45.860Z,42.88
2017-01-14T01:44:18.718Z,43.36
2017-01-14T01:44:51.514Z,43
2017-01-14T01:45:24.313Z,43.27
2017-01-14T01:45:57.104Z,43.46
2017-01-14T01:46:29.869Z,43.29
2017-01-14T01:48:22.149Z,43.36
2017-01-14T01:48:54.917Z,43.36
2017-01-14T01:49:27.668Z,43.36
2017-01-14T01:50:00.483Z,43.17
2017-01-14T01:50:33.249Z,43.07
2017-01-14T01:51:06.057Z,43.46
2017-01-14T01:51:38.855Z,43.17
2017-01-14T01:52:11.636Z,42.98
2017-01-14T01:52:44.422Z,43.07
2017-01-14T01:53:17.201Z,43.07
2017-01-14T01:53:50.043Z,43.07
2017-01-14T01:54:22.876Z,42.98
2017-01-14T01:54:55.694Z,43.17
2017-01-14T01:55:28.510Z,42.98
2017-01-14T01:56:01.269Z,43
2017-01-14T01:56:34.100Z,42.98
2017-01-14T01:57:06.879Z,43.19
2017-01-14T01:57:39.643Z,42.98
2017-01-14T01:58:12.411Z,43.27
2017-01-14T01:58:45.191Z,43.17
2017-01-14T01:59:18.028Z,43.17
2017-01-14T01:59:50.847Z,42.98
2017-01-14T02:00:23.649Z,43.07
2017-01-14T02:00:56.399Z,43.1
2017-01-14T02:01:29.270Z,42.98
2017-01-14T02:02:02.103Z,42.98
2017-01-14T02:02:34.908Z,42.98
2017-01-14T02:03:07.744Z,43.27
2017-01-14T02:03:40.597Z,43.17
2017-01-14T02:04:13.422Z,43.07
2017-01-14T02:04:46.229Z,43.17
2017-01-14T02:05:19.030Z,42.98
2017-01-14T02:05:51.853Z,43.07
2017-01-14T02:06:24.644Z,43.17
2017-01-14T02:06:57.477Z,43.17
2017-01-14T02:07:30.300Z,43.19
2017-01-14T02:08:03.090Z,43.17
2017-01-14T02:08:35.867Z,43.19
2017-01-14T02:09:08.660Z,43.17
2017-01-14T02:09:41.440Z,42.98
2017-01-14T02:10:14.239Z,43.07
2017-01-14T02:10:47.055Z,42.98
2017-01-14T02:11:19.857Z,42.98
2017-01-14T02:11:52.628Z,43.17
2017-01-14T02:12:25.465Z,42.98
2017-01-14T02:14:17.739Z,43.07
2017-01-14T02:14:50.541Z,43.07
2017-01-14T02:15:23.343Z,43.07
2017-01-14T02:15:56.123Z,43.07
2017-01-14T02:16:28.891Z,43.07
2017-01-14T02:17:01.716Z,43.17
2017-01-14T02:17:34.505Z,42.98
2017-01-14T02:18:07.329Z,43.17
2017-01-14T02:18:40.091Z,42.98
2017-01-14T02:19:12.893Z,43.17
2017-01-14T02:19:45.720Z,43.19
2017-01-14T02:20:18.478Z,43.07
2017-01-14T02:20:51.258Z,43
2017-01-14T02:21:24.071Z,43.07
2017-01-14T02:21:56.872Z,43.17
2017-01-14T02:22:29.685Z,43.27
2017-01-14T02:23:02.507Z,43.07
2017-01-14T02:23:35.303Z,43.07
2017-01-14T02:24:08.114Z,43.07
2017-01-14T02:24:40.902Z,43.07
2017-01-14T02:25:13.650Z,43.1
2017-01-14T02:25:46.417Z,43.17
2017-01-14T02:26:19.204Z,43.17
2017-01-14T02:26:52.007Z,43.19
2017-01-14T02:27:24.768Z,43.17
2017-01-14T02:27:57.556Z,43.07
2017-01-14T02:28:30.400Z,42.98
2017-01-14T02:29:03.153Z,43.17
2017-01-14T02:29:35.927Z,43.07
2017-01-14T02:30:08.683Z,43.27
2017-01-14T02:30:41.474Z,43.17
2017-01-14T02:31:14.288Z,43.1
2017-01-14T02:31:47.148Z,43.07
2017-01-14T02:32:19.962Z,43
2017-01-14T02:32:52.776Z,43.07
2017-01-14T02:33:25.574Z,43.19
2017-01-14T02:33:58.380Z,43.1
2017-01-14T02:34:31.170Z,43.07
2017-01-14T02:35:03.974Z,42.98
2017-01-14T02:35:36.780Z,43.17
2017-01-14T02:36:09.547Z,43.1
2017-01-14T02:36:42.357Z,43
2017-01-14T02:37:15.141Z,43.17
2017-01-14T02:37:47.941Z,43.07
2017-01-14T02:38:20.735Z,42.98
2017-01-14T02:38:53.510Z,43.19
2017-01-14T02:39:26.279Z,42.98
2017-01-14T02:39:59.050Z,43.1
2017-01-14T02:40:31.878Z,43
2017-01-14T02:41:04.717Z,42.98
2017-01-14T02:41:37.519Z,43.17
2017-01-14T02:42:10.330Z,43.07
2017-01-14T02:42:43.144Z,43.17
2017-01-14T02:43:15.947Z,43.1
2017-01-14T02:43:48.731Z,43.19
2017-01-14T02:44:21.562Z,43.1
2017-01-14T02:44:54.424Z,43
2017-01-14T02:45:27.242Z,43.1
2017-01-14T02:46:00.044Z,42.98
2017-01-14T02:46:32.893Z,43
2017-01-14T02:47:05.728Z,43.1
2017-01-14T02:47:38.569Z,43.1
2017-01-14T02:48:11.365Z,43.1
2017-01-14T02:48:44.204Z,43.1
2017-01-14T02:49:16.982Z,43.19
2017-01-14T02:49:49.830Z,43.1
2017-01-14T02:50:22.851Z,43.17
2017-01-14T02:50:56.573Z,43.1
2017-01-14T02:51:29.632Z,43.19
2017-01-14T02:52:02.431Z,43.1
2017-01-14T02:52:35.425Z,43
2017-01-14T02:53:08.697Z,42.98
2017-01-14T02:53:41.736Z,43
2017-01-14T02:54:14.539Z,43
2017-01-14T02:54:47.352Z,42.98
2017-01-14T02:55:20.163Z,43.1
2017-01-14T02:55:52.953Z,43.19
2017-01-14T02:56:25.768Z,43.1
2017-01-14T02:56:58.543Z,43.07
2017-01-14T02:57:31.341Z,43
2017-01-14T02:58:04.152Z,43.1
2017-01-14T02:58:36.956Z,43.19
2017-01-14T02:59:09.744Z,43
2017-01-14T02:59:42.561Z,43.1
2017-01-14T03:00:15.380Z,43.1
2017-01-14T03:00:48.159Z,43.1
2017-01-14T03:01:20.999Z,43.19
2017-01-14T03:01:53.804Z,43
2017-01-14T03:02:26.604Z,43.1
2017-01-14T03:02:59.459Z,43.1
2017-01-14T03:03:32.281Z,43.19
2017-01-14T03:04:05.066Z,43.29
2017-01-14T03:04:37.921Z,43
2017-01-14T03:05:10.748Z,43.1
2017-01-14T03:05:43.515Z,43.19
2017-01-14T03:06:16.314Z,43.1
2017-01-14T03:06:49.133Z,43
2017-01-14T03:07:21.927Z,43.1
2017-01-14T03:07:54.726Z,43.19
2017-01-14T03:08:27.509Z,43.19
2017-01-14T03:09:00.312Z,43.1
2017-01-14T03:09:33.111Z,43.17
2017-01-14T03:10:05.904Z,43.1
2017-01-14T03:10:38.743Z,43.1
2017-01-14T03:11:11.541Z,43.19
2017-01-14T03:11:44.332Z,43
2017-01-14T03:12:17.102Z,43
2017-01-14T03:12:49.904Z,43
2017-01-14T03:13:22.711Z,42.98
2017-01-14T03:13:55.539Z,43.19
2017-01-14T03:14:28.352Z,43.19
2017-01-14T03:15:01.150Z,43
2017-01-14T03:15:33.956Z,42.9
2017-01-14T03:16:06.740Z,43.1
2017-01-14T03:16:39.589Z,43.19
2017-01-14T03:17:12.435Z,43.1
2017-01-14T03:17:45.252Z,43.1
2017-01-14T03:18:18.038Z,43.19
2017-01-14T03:18:50.817Z,43.1
2017-01-14T03:19:23.634Z,43
2017-01-14T03:19:56.456Z,43.1
2017-01-14T03:20:29.260Z,43.19
2017-01-14T03:21:02.047Z,43.19
2017-01-14T03:21:34.879Z,43.19
2017-01-14T03:22:07.651Z,43.1
2017-01-14T03:22:40.464Z,43.38
2017-01-14T03:23:13.279Z,43.29
2017-01-14T03:23:46.113Z,43.29
2017-01-14T03:24:18.918Z,43
2017-01-14T03:24:51.688Z,43.1
2017-01-14T03:25:24.517Z,43.19
2017-01-14T03:25:57.313Z,43.1
2017-01-14T03:26:30.144Z,43.29
2017-01-14T03:27:02.939Z,43.29
2017-01-14T03:27:35.752Z,43
2017-01-14T03:28:08.549Z,43.29
2017-01-14T03:28:41.325Z,43.19
2017-01-14T03:29:14.141Z,43.19
2017-01-14T03:29:46.973Z,43.1
2017-01-14T03:30:19.734Z,43.38
2017-01-14T03:30:52.576Z,43
2017-01-14T03:31:25.382Z,43.1
2017-01-14T03:31:58.223Z,43.17
2017-01-14T03:32:31.055Z,43.1
2017-01-14T03:33:03.881Z,43.29
2017-01-14T03:33:36.688Z,43.17
2017-01-14T03:34:09.479Z,43.36
2017-01-14T03:34:42.276Z,43.19
2017-01-14T03:35:15.072Z,43.07
2017-01-14T03:35:47.889Z,43.27
2017-01-14T03:36:20.659Z,43.36
2017-01-14T03:36:53.492Z,43
2017-01-14T03:37:26.270Z,42.98
2017-01-14T03:37:59.058Z,43
2017-01-14T03:38:31.864Z,43.19
2017-01-14T03:39:04.691Z,43.17
2017-01-14T03:39:37.502Z,43.36
2017-01-14T03:40:10.319Z,43.27
2017-01-14T03:40:43.110Z,43.1
2017-01-14T03:41:15.944Z,43.1
2017-01-14T03:41:48.753Z,43.48
2017-01-14T03:42:21.579Z,43.1
2017-01-14T03:42:54.367Z,43.07
2017-01-14T03:43:27.176Z,43.19
2017-01-14T03:43:59.941Z,43.19
2017-01-14T03:44:32.739Z,42.98
2017-01-14T03:45:05.584Z,43.07
2017-01-14T03:45:38.382Z,43.38
2017-01-14T03:46:11.167Z,43.48
2017-01-14T03:46:43.908Z,43.07
2017-01-14T03:47:16.704Z,43
2017-01-14T03:47:49.455Z,43.1
2017-01-14T03:48:22.226Z,43.38
2017-01-14T03:48:55.056Z,43.1
2017-01-14T03:49:27.858Z,43.1
2017-01-14T03:50:00.656Z,43.36
2017-01-14T03:50:33.428Z,43.07
2017-01-14T03:51:06.235Z,43.36
2017-01-14T03:51:39.064Z,43.19
2017-01-14T03:52:11.827Z,43.38
2017-01-14T03:52:44.647Z,43.27
2017-01-14T03:53:17.417Z,43.36
2017-01-14T03:53:50.209Z,43
2017-01-14T03:54:23.030Z,43.38
2017-01-14T03:54:55.851Z,43.1
2017-01-14T03:55:28.674Z,43.38
2017-01-14T03:56:01.436Z,43
2017-01-14T03:56:34.256Z,43.07
2017-01-14T03:57:07.113Z,43.38
2017-01-14T03:57:39.902Z,43.38
2017-01-14T03:58:12.712Z,43.27
2017-01-14T03:58:45.553Z,43
2017-01-14T03:59:18.383Z,43.38
2017-01-14T03:59:51.196Z,43.17
2017-01-14T04:00:24.022Z,43.38
2017-01-14T04:00:56.873Z,43.46
2017-01-14T04:01:29.682Z,43.46
2017-01-14T04:02:02.448Z,43.36
2017-01-14T04:02:35.246Z,43.36
2017-01-14T04:03:08.095Z,43.29
2017-01-14T04:03:40.844Z,43.36
2017-01-14T04:04:13.610Z,43.19
2017-01-14T04:04:46.381Z,43.17
2017-01-14T04:05:19.134Z,43.38
2017-01-14T04:05:51.931Z,43.36
2017-01-14T04:06:24.748Z,43.36
2017-01-14T04:06:57.535Z,43.38
2017-01-14T04:07:30.347Z,43.36
2017-01-14T04:08:03.117Z,42.98
2017-01-14T04:08:35.935Z,43.36
2017-01-14T04:09:08.722Z,43.17
2017-01-14T04:09:41.509Z,43.46
2017-01-14T04:10:14.318Z,43.36
2017-01-14T04:10:47.111Z,43.36
2017-01-14T04:11:19.900Z,43.36
2017-01-14T04:11:52.711Z,43.17
2017-01-14T04:12:25.502Z,43.17
2017-01-14T04:12:58.299Z,43.17
2017-01-14T04:13:31.143Z,43.17
2017-01-14T04:14:03.926Z,42.98
2017-01-14T04:14:36.701Z,43.17
2017-01-14T04:15:09.455Z,42.98
2017-01-14T04:15:42.267Z,43.27
2017-01-14T04:16:15.072Z,43.46
2017-01-14T04:16:47.887Z,43.55
2017-01-14T04:17:20.727Z,43.46
2017-01-14T04:17:53.552Z,43.29
2017-01-14T04:18:26.903Z,43.36
2017-01-14T04:18:59.716Z,43.46
2017-01-14T04:19:32.532Z,43.27
2017-01-14T04:20:05.341Z,43.46
2017-01-14T04:20:38.124Z,43.07
2017-01-14T04:21:10.958Z,43.17
2017-01-14T04:21:43.778Z,43.17
2017-01-14T04:22:16.591Z,43.46
2017-01-14T04:22:49.388Z,43.46
2017-01-14T04:23:22.195Z,43.36
2017-01-14T04:23:55.001Z,43.27
2017-01-14T04:24:27.804Z,43.36
2017-01-14T04:25:00.588Z,43.46
2017-01-14T04:25:33.375Z,42.98
2017-01-14T04:26:06.159Z,43.36
2017-01-14T04:26:38.941Z,43.27
2017-01-14T04:27:11.769Z,43.27
2017-01-14T04:27:44.545Z,43.27
2017-01-14T04:28:17.373Z,43.27
2017-01-14T04:28:50.192Z,43.17
2017-01-14T04:29:22.955Z,43.27
2017-01-14T04:29:55.764Z,43.27
2017-01-14T04:30:28.575Z,43.17
2017-01-14T04:31:01.323Z,43.46
2017-01-14T04:31:34.108Z,43.27
2017-01-14T04:32:06.893Z,43.17
2017-01-14T04:32:39.726Z,43.27
2017-01-14T04:33:12.499Z,43.46
2017-01-14T04:33:45.306Z,43.48
2017-01-14T04:34:18.093Z,43.27
2017-01-14T04:34:50.885Z,43.27
2017-01-14T04:35:23.731Z,43.38
2017-01-14T04:35:56.545Z,43.36
2017-01-14T04:36:29.387Z,43.27
2017-01-14T04:37:02.171Z,43.27
2017-01-14T04:37:34.941Z,43.36
2017-01-14T04:38:07.730Z,43.29
2017-01-14T04:38:40.562Z,43.46
2017-01-14T04:39:13.332Z,43.27
2017-01-14T04:39:46.096Z,43.27
2017-01-14T04:40:18.882Z,43.27
2017-01-14T04:40:51.721Z,43.17
2017-01-14T04:41:24.513Z,43.27
2017-01-14T04:41:57.327Z,43.36
2017-01-14T04:42:30.119Z,43.36
2017-01-14T04:43:02.909Z,43.27
2017-01-14T04:43:35.678Z,43.46
2017-01-14T04:44:08.512Z,43.46
2017-01-14T04:44:41.297Z,43.27
2017-01-14T04:45:14.103Z,43.07
2017-01-14T04:45:46.921Z,43.38
2017-01-14T04:46:19.725Z,43.27
2017-01-14T04:46:52.538Z,43.36
2017-01-14T04:47:25.344Z,43.38
2017-01-14T04:47:58.143Z,43.17
2017-01-14T04:48:30.946Z,43.27
2017-01-14T04:49:03.738Z,43.27
2017-01-14T04:49:36.514Z,43.27
2017-01-14T04:50:09.267Z,43.27
2017-01-14T04:50:42.067Z,43.19
2017-01-14T04:51:14.878Z,43.46
2017-01-14T04:51:47.704Z,43.27
2017-01-14T04:52:20.524Z,43.17
2017-01-14T04:52:53.322Z,43.17
2017-01-14T04:53:26.149Z,43.17
2017-01-14T04:53:58.926Z,43.17
2017-01-14T04:54:31.743Z,43.38
2017-01-14T04:55:04.535Z,43.36
2017-01-14T04:55:37.329Z,43.27
2017-01-14T04:56:10.159Z,43
2017-01-14T04:56:42.951Z,43.36
2017-01-14T04:57:15.758Z,43.36
2017-01-14T04:57:48.583Z,42.9
2017-01-14T04:58:21.349Z,43.46
2017-01-14T04:58:54.136Z,43.48
2017-01-14T04:59:26.958Z,43.36
2017-01-14T04:59:59.758Z,42.98
2017-01-14T05:00:32.574Z,43.36
2017-01-14T05:01:05.346Z,43.36
2017-01-14T05:01:38.126Z,43.36
2017-01-14T05:02:10.944Z,43.38
2017-01-14T05:02:43.728Z,43.36
2017-01-14T05:03:16.531Z,43.29
2017-01-14T05:03:49.333Z,42.98
2017-01-14T05:04:22.156Z,43.1
2017-01-14T05:04:54.944Z,43.27
2017-01-14T05:05:27.778Z,43.36
2017-01-14T05:06:00.617Z,43.38
2017-01-14T05:06:33.446Z,43.27
2017-01-14T05:07:06.265Z,43.1
2017-01-14T05:07:39.041Z,43.27
2017-01-14T05:08:11.843Z,43.27
2017-01-14T05:08:44.659Z,43.36
2017-01-14T05:09:17.479Z,43.27
2017-01-14T05:09:50.245Z,42.98
2017-01-14T05:10:23.051Z,43.17
2017-01-14T05:10:55.893Z,43.07
2017-01-14T05:11:28.733Z,43.17
2017-01-14T05:12:01.533Z,43.17
2017-01-14T05:12:34.328Z,43.17
2017-01-14T05:13:07.108Z,43.17
2017-01-14T05:13:39.939Z,43.38
2017-01-14T05:14:12.763Z,43.17
2017-01-14T05:14:45.572Z,43.36
2017-01-14T05:15:18.375Z,43.07
2017-01-14T05:15:51.172Z,43.46
2017-01-14T05:16:23.942Z,43.36
2017-01-14T05:16:56.744Z,43.07
2017-01-14T05:17:29.519Z,43.1
2017-01-14T05:18:02.308Z,42.98
2017-01-14T05:18:35.111Z,43.07
2017-01-14T05:19:07.934Z,43.17
2017-01-14T05:19:40.741Z,43
2017-01-14T05:20:13.544Z,43.36
2017-01-14T05:20:46.347Z,43.17
2017-01-14T05:21:19.127Z,43
2017-01-14T05:21:51.920Z,43.07
2017-01-14T05:22:24.712Z,43.29
2017-01-14T05:22:57.486Z,43.07
2017-01-14T05:23:30.298Z,43.07
2017-01-14T05:24:03.110Z,42.98
2017-01-14T05:24:35.957Z,43.29
2017-01-14T05:25:08.739Z,43.07
2017-01-14T05:25:41.505Z,43.27
2017-01-14T05:26:14.336Z,43.07
2017-01-14T05:26:47.174Z,43
2017-01-14T05:27:20.042Z,43.19
2017-01-14T05:27:52.806Z,43.07
2017-01-14T05:28:25.597Z,43.17
2017-01-14T05:28:58.383Z,43.17
2017-01-14T05:29:31.177Z,43.19
2017-01-14T05:30:03.974Z,43.29
2017-01-14T05:30:36.812Z,43.17
2017-01-14T05:31:09.613Z,43.19
2017-01-14T05:31:42.396Z,43.19
2017-01-14T05:32:15.244Z,43.17
2017-01-14T05:32:48.029Z,43.29
2017-01-14T05:33:20.863Z,43.07
2017-01-14T05:33:53.621Z,43.27
2017-01-14T05:34:26.431Z,42.98
2017-01-14T05:34:59.231Z,43.07
2017-01-14T05:35:32.003Z,43.29
2017-01-14T05:36:04.774Z,43.07
2017-01-14T05:36:37.572Z,43.27
2017-01-14T05:37:10.380Z,43.07
2017-01-14T05:37:43.194Z,43.17
2017-01-14T05:38:15.972Z,43.27
2017-01-14T05:38:48.768Z,43.07
2017-01-14T05:39:21.590Z,43.07
2017-01-14T05:39:54.368Z,43.07
2017-01-14T05:40:27.173Z,43.07
2017-01-14T05:40:59.977Z,42.98
2017-01-14T05:41:32.831Z,43.07
2017-01-14T05:42:05.665Z,43.17
2017-01-14T05:42:38.471Z,43.17
2017-01-14T05:43:11.268Z,43.19
2017-01-14T05:43:44.090Z,43.1
2017-01-14T05:44:16.896Z,42.98
2017-01-14T05:44:49.745Z,42.98
2017-01-14T05:45:22.576Z,43.1
2017-01-14T05:45:55.375Z,43.07
2017-01-14T05:46:28.205Z,43
2017-01-14T05:47:01.011Z,43.07
2017-01-14T05:47:33.820Z,43.07
2017-01-14T05:48:06.645Z,43.17
2017-01-14T05:48:39.507Z,43.07
2017-01-14T05:49:12.308Z,43.19
2017-01-14T05:49:45.115Z,43
2017-01-14T05:50:17.943Z,43.1
2017-01-14T05:50:50.756Z,43.1
2017-01-14T05:51:23.569Z,43.07
2017-01-14T05:51:56.366Z,43.17
2017-01-14T05:52:29.176Z,43.1
2017-01-14T05:53:01.988Z,43.1
2017-01-14T05:53:34.803Z,43.07
2017-01-14T05:54:07.573Z,43
2017-01-14T05:54:40.367Z,42.98
2017-01-14T05:55:13.191Z,43.07
2017-01-14T05:55:46.000Z,43.27
2017-01-14T05:56:18.792Z,43.19
2017-01-14T05:56:51.604Z,42.98
2017-01-14T05:57:24.380Z,43.07
2017-01-14T05:57:57.159Z,43.17
2017-01-14T05:58:29.904Z,42.98
2017-01-14T05:59:02.693Z,43
2017-01-14T05:59:35.493Z,43.17
2017-01-14T06:00:08.266Z,43
2017-01-14T06:00:41.815Z,43.27
2017-01-14T06:01:14.584Z,43.46
2017-01-14T06:01:47.415Z,43.1
2017-01-14T06:02:20.222Z,43.1
2017-01-14T06:02:53.027Z,43.19
2017-01-14T06:03:25.824Z,42.98
2017-01-14T06:03:58.652Z,43
2017-01-14T06:04:31.454Z,43.19
2017-01-14T06:05:04.261Z,43.48
2017-01-14T06:05:37.076Z,43.1
2017-01-14T06:06:09.877Z,43.1
2017-01-14T06:06:42.680Z,43
2017-01-14T06:07:15.441Z,43.1
2017-01-14T06:07:48.229Z,42.98
2017-01-14T06:08:21.016Z,42.98
2017-01-14T06:08:53.846Z,43.29
2017-01-14T06:09:26.632Z,42.98
2017-01-14T06:09:59.420Z,43.27
2017-01-14T06:10:32.216Z,43.19
2017-01-14T06:11:05.031Z,43.07
2017-01-14T06:11:37.834Z,43
2017-01-14T06:12:10.661Z,43.07
2017-01-14T06:12:43.444Z,42.98
2017-01-14T06:13:16.263Z,42.98
2017-01-14T06:13:49.081Z,43.17
2017-01-14T06:14:21.887Z,43.07
2017-01-14T06:14:54.677Z,43.17
2017-01-14T06:15:27.499Z,43.48
2017-01-14T06:16:00.336Z,43.38
2017-01-14T06:16:33.131Z,43.19
2017-01-14T06:17:05.908Z,43
2017-01-14T06:17:38.669Z,43.38
2017-01-14T06:18:11.452Z,43.19
2017-01-14T06:18:44.233Z,43.38
2017-01-14T06:19:17.033Z,43.46
2017-01-14T06:19:49.794Z,43
2017-01-14T06:20:22.600Z,43.36
2017-01-14T06:20:55.447Z,43.27
2017-01-14T06:21:28.268Z,42.98
2017-01-14T06:22:01.094Z,42.88
2017-01-14T06:22:33.895Z,42.88
2017-01-14T06:23:06.697Z,43.19
2017-01-14T06:23:39.503Z,43.27
2017-01-14T06:24:12.334Z,43.38
2017-01-14T06:24:45.171Z,43.38
2017-01-14T06:25:17.959Z,42.9
2017-01-14T06:25:50.759Z,42.98
2017-01-14T06:26:23.563Z,43.19
2017-01-14T06:26:56.390Z,43.38
2017-01-14T06:27:28.796Z,42.9
2017-01-14T06:28:01.619Z,43.38
2017-01-14T06:28:34.414Z,43.19
2017-01-14T06:29:07.219Z,43.38
2017-01-14T06:29:40.008Z,43.07
2017-01-14T06:30:12.860Z,42.98
2017-01-14T06:30:45.656Z,43.07
2017-01-14T06:31:18.440Z,42.9
2017-01-14T06:31:51.226Z,43.38
2017-01-14T06:32:24.052Z,43.19
2017-01-14T06:32:56.867Z,43.1
2017-01-14T06:33:29.658Z,43.19
2017-01-14T06:34:02.456Z,42.9
2017-01-14T06:34:35.263Z,42.88
2017-01-14T06:35:08.044Z,43.38
2017-01-14T06:35:40.814Z,43
2017-01-14T06:36:13.621Z,42.98
2017-01-14T06:36:46.423Z,43.36
2017-01-14T06:37:19.234Z,43
2017-01-14T06:37:52.044Z,43.17
2017-01-14T06:38:24.842Z,43.38
2017-01-14T06:38:57.669Z,42.9
2017-01-14T06:39:30.493Z,43.19
2017-01-14T06:40:03.291Z,43.27
2017-01-14T06:40:36.184Z,43.36
2017-01-14T06:41:09.032Z,43.07
2017-01-14T06:41:41.848Z,42.9
2017-01-14T06:42:14.653Z,43.36
2017-01-14T06:42:47.403Z,43
2017-01-14T06:43:20.161Z,43.17
2017-01-14T06:43:52.955Z,42.98
2017-01-14T06:44:25.721Z,43.36
2017-01-14T06:44:58.550Z,43.27
2017-01-14T06:45:31.367Z,43
2017-01-14T06:46:04.202Z,43
2017-01-14T06:46:36.986Z,42.98
2017-01-14T06:47:09.844Z,42.9
2017-01-14T06:47:42.633Z,43.17
2017-01-14T06:48:15.378Z,42.98
2017-01-14T06:48:48.154Z,43.46
2017-01-14T06:49:20.970Z,43.36
2017-01-14T06:49:53.768Z,42.98
2017-01-14T06:50:26.538Z,42.98
2017-01-14T06:50:59.312Z,42.98
2017-01-14T06:51:32.080Z,43.36
2017-01-14T06:52:04.859Z,43.36
2017-01-14T06:52:37.702Z,43.07
2017-01-14T06:53:10.508Z,43.36
2017-01-14T06:53:43.295Z,43.46
2017-01-14T06:54:16.083Z,43.36
2017-01-14T06:54:48.863Z,43.07
2017-01-14T06:55:21.680Z,43
2017-01-14T06:55:54.484Z,42.88
2017-01-14T06:56:27.284Z,43.36
2017-01-14T06:57:00.115Z,42.98
2017-01-14T06:57:32.981Z,42.98
2017-01-14T06:58:05.791Z,43.17
2017-01-14T06:58:38.573Z,43.36
2017-01-14T06:59:11.378Z,43.46
2017-01-14T06:59:44.161Z,43.36
2017-01-14T07:00:16.986Z,43.19
2017-01-14T07:00:49.792Z,43.36
2017-01-14T07:01:22.597Z,43.07
2017-01-14T07:01:55.369Z,43.36
2017-01-14T07:02:28.182Z,43.36
2017-01-14T07:03:00.995Z,42.88
2017-01-14T07:03:33.814Z,43.17
2017-01-14T07:04:06.630Z,43.27
2017-01-14T07:04:39.445Z,43.46
2017-01-14T07:05:12.226Z,43.36
2017-01-14T07:05:45.057Z,43.29
2017-01-14T07:06:17.883Z,43.17
2017-01-14T07:06:50.672Z,43.17
2017-01-14T07:07:23.477Z,42.98
2017-01-14T07:07:56.237Z,42.98
2017-01-14T07:08:28.999Z,43.36
2017-01-14T07:09:01.772Z,43.07
2017-01-14T07:09:34.617Z,43.46
2017-01-14T07:10:07.418Z,43.38
2017-01-14T07:10:40.191Z,43.19
2017-01-14T07:11:12.960Z,43.36
2017-01-14T07:11:45.732Z,43.36
2017-01-14T07:12:18.522Z,43.17
2017-01-14T07:12:51.313Z,42.88
2017-01-14T07:13:24.138Z,43.07
2017-01-14T07:13:56.952Z,43.36